Airfield :
LOGIN :

Register | Disclaimer

   EN    FR    IT 

 










Legend :    VFR   Marginal VFR   IFR   Intensive IFR   Very Intensive IFR
Visi :
Ceiling :
>= 8 km
>= 3000ft
5 to 8 km
1000 to 3000 ft
1500m to 5 km
500 to 1000 ft
800 to 1500m
200 to 500 ft
< 800m
< 200 ft
Symbols :   Thunderstorms  Fog  Heavy snow  Heavy precipitations  Wind > 20 kt
SIGMETs :     Misc.  Thunderstorms  Icing  Turbulence  Mountain Waves  Volcanic Ashes







- Airport Elevation : 13 ft
- IATA code : SNR
- Download approach charts


LFRZ - St-Nazaire

CURRENT METAR :
  • 151400Z AUTO 30006KT 270V350 9999 BKN013 BKN100 16/13 Q1009 TEMPO BKN009

EXPIRED METARs :
  • 151330Z AUTO 25004KT 230V290 9999 BKN016 BKN030 OVC110 16/13 Q1009 TEMPO BKN009
  • 151300Z AUTO 24004KT 210V270 9999 OVC022 15/13 Q1009 TEMPO BKN009
  • 151230Z AUTO 18003KT 9999 OVC021 16/13 Q1009 TEMPO BKN009
  • 151200Z AUTO VRB02KT 9999 SCT015 OVC020 16/12 Q1009 TEMPO BKN009
  • 151130Z AUTO VRB02KT 9999 BKN011 OVC018 15/13 Q1009 TEMPO BKN009

TAF TAF LFRZ
Valid from the 15 at 12:00 until the 16 at 12:00 UTC


151100Z 1512/1612 VRB04KT 9999 BKN020
PROB30
TEMPO 1512/1518 -SHRA BKN009
TEMPO 1600/1607 BKN004
No reported NOTAMs for that airfield.



MET'MAP, your aeronautical weather chart ! - Copyright ORBIFLY December 2007 - Disclaimer

ORBIFLY MET'MAP TEAM :

Programming & Development : Alexandra Zaïnal
Concept & Development : Baudouin d'Aumeries
Co-Development & Prog : Marc-Olivier Méhu
Technical & hardware support : Manuel Goepfert

Contact : metmap@orbifly.com




SOURCES & CREDITS :

   NOAA